Time;durP1;ratioP1;P1;durP2;ratioP2;P2;SDS_P1;SDS_P2;PMS_P1;PMS_P2;Temp;Humidity;BMP_temperature;BMP_pressure;BME280_temperature;BME280_humidity;BME280_pressure;Samples;Min_cycle;Max_cycle;Signal;HPM_P1;HPM_P2
2023/04/27 00:00:56;;;;;;;8.77;4.75;;;;;;;;;;5021799;28;20084;-66
2023/04/27 00:03:21;;;;;;;8.30;4.47;;;;;;;;;;5026045;28;20030;-62
2023/04/27 00:05:47;;;;;;;9.05;4.03;;;;;;;;;;5012879;28;20376;-61
2023/04/27 00:08:12;;;;;;;9.25;4.35;;;;;;;;;;5016449;28;20383;-61
2023/04/27 00:10:37;;;;;;;10.43;5.00;;;;;;;;;;5022994;28;20431;-61
2023/04/27 00:13:03;;;;;;;10.65;5.30;;;;;;;;;;5018030;28;20030;-61
2023/04/27 00:15:28;;;;;;;10.18;4.82;;;;;;;;;;5013933;28;20385;-61
2023/04/27 00:17:54;;;;;;;11.40;5.03;;;;;;;;;;5013689;28;20038;-60
2023/04/27 00:20:19;;;;;;;11.50;4.80;;;;;;;;;;5018866;28;20049;-60
2023/04/27 00:22:45;;;;;;;10.15;4.68;;;;;;;;;;5022982;28;20041;-62
2023/04/27 00:25:11;;;;;;;10.70;4.88;;;;;;;;;;5012668;28;20045;-61
2023/04/27 00:27:36;;;;;;;11.15;4.78;;;;;;;;;;5028992;28;20089;-62
2023/04/27 00:30:02;;;;;;;10.32;4.68;;;;;;;;;;5017899;28;20030;-61
2023/04/27 00:32:27;;;;;;;10.02;4.72;;;;;;;;;;5022661;28;20034;-61
2023/04/27 00:34:52;;;;;;;12.30;5.82;;;;;;;;;;5014857;28;20034;-61
2023/04/27 00:37:18;;;;;;;8.98;4.85;;;;;;;;;;5013735;28;20041;-61
2023/04/27 00:39:43;;;;;;;9.48;5.00;;;;;;;;;;5025655;28;20136;-61
2023/04/27 00:42:12;;;;;;;10.23;4.60;;;;;;;;;;5012615;28;20034;-61
2023/04/27 00:44:38;;;;;;;10.63;5.10;;;;;;;;;;5027282;28;20034;-61
2023/04/27 00:47:04;;;;;;;9.93;4.50;;;;;;;;;;5019886;28;20044;-60
2023/04/27 00:49:31;;;;;;;9.02;4.95;;;;;;;;;;5021963;28;20131;-62
2023/04/27 00:51:56;;;;;;;9.02;4.80;;;;;;;;;;5024721;28;20744;-62
2023/04/27 00:54:21;;;;;;;10.25;4.88;;;;;;;;;;5016093;28;20029;-62
2023/04/27 00:56:49;;;;;;;10.23;4.65;;;;;;;;;;5030644;28;20095;-66
2023/04/27 00:59:14;;;;;;;11.13;4.93;;;;;;;;;;5027823;28;20087;-61
2023/04/27 01:01:40;;;;;;;11.25;5.10;;;;;;;;;;5015800;28;20423;-60
2023/04/27 01:04:05;;;;;;;12.25;4.97;;;;;;;;;;5027659;28;20553;-61
2023/04/27 01:06:31;;;;;;;8.90;4.47;;;;;;;;;;5032993;28;20029;-62
2023/04/27 01:08:56;;;;;;;15.63;5.35;;;;;;;;;;5013831;28;20069;-61
2023/04/27 01:11:22;;;;;;;11.82;5.00;;;;;;;;;;5013378;28;20088;-61
2023/04/27 01:13:47;;;;;;;12.07;6.07;;;;;;;;;;5027265;28;20033;-61
2023/04/27 01:16:13;;;;;;;10.20;5.20;;;;;;;;;;5012021;28;20083;-60
2023/04/27 01:18:39;;;;;;;10.45;5.10;;;;;;;;;;5025119;28;20027;-61
2023/04/27 01:21:05;;;;;;;10.50;4.85;;;;;;;;;;5021709;28;20037;-61
2023/04/27 01:23:30;;;;;;;13.43;5.43;;;;;;;;;;5027009;28;20120;-60
2023/04/27 01:25:56;;;;;;;12.15;4.63;;;;;;;;;;5016239;28;20112;-61
2023/04/27 01:28:21;;;;;;;11.23;5.22;;;;;;;;;;5032451;28;20084;-61
2023/04/27 01:30:47;;;;;;;12.57;5.20;;;;;;;;;;5026152;28;20061;-60
2023/04/27 01:33:12;;;;;;;11.05;4.93;;;;;;;;;;5025508;28;20033;-61
2023/04/27 01:35:37;;;;;;;13.45;5.50;;;;;;;;;;5014943;28;20068;-62
2023/04/27 01:38:03;;;;;;;12.05;4.93;;;;;;;;;;5029512;28;20041;-64
2023/04/27 01:40:28;;;;;;;15.02;6.78;;;;;;;;;;5026299;28;20037;-61
2023/04/27 01:42:53;;;;;;;11.82;5.43;;;;;;;;;;5011517;28;20033;-61
2023/04/27 01:45:19;;;;;;;12.77;5.30;;;;;;;;;;5014608;28;20037;-62
2023/04/27 01:47:45;;;;;;;10.35;5.30;;;;;;;;;;5027415;28;20044;-61
2023/04/27 01:50:10;;;;;;;10.70;5.43;;;;;;;;;;5020927;28;20151;-62
2023/04/27 01:52:35;;;;;;;9.80;4.95;;;;;;;;;;5031296;28;20184;-61
2023/04/27 01:55:01;;;;;;;11.18;4.97;;;;;;;;;;5025779;28;20112;-61
2023/04/27 01:57:26;;;;;;;12.48;5.28;;;;;;;;;;5013744;28;20030;-62
2023/04/27 01:59:52;;;;;;;9.65;5.07;;;;;;;;;;5014930;28;20033;-61
2023/04/27 02:02:17;;;;;;;10.80;5.28;;;;;;;;;;5027307;28;20464;-61
2023/04/27 02:04:43;;;;;;;14.00;5.30;;;;;;;;;;5012137;28;20037;-61
2023/04/27 02:07:09;;;;;;;12.40;5.10;;;;;;;;;;5027950;28;20083;-62
2023/04/27 02:09:35;;;;;;;13.88;4.80;;;;;;;;;;5029844;28;20041;-62
2023/04/27 02:12:01;;;;;;;8.93;4.95;;;;;;;;;;5022168;28;20040;-61
2023/04/27 02:14:26;;;;;;;12.82;5.38;;;;;;;;;;5012339;28;20030;-61
2023/04/27 02:16:52;;;;;;;9.93;5.00;;;;;;;;;;5011423;28;20038;-61
2023/04/27 02:19:17;;;;;;;12.40;5.00;;;;;;;;;;5015120;28;20021;-61
2023/04/27 02:21:43;;;;;;;9.30;4.68;;;;;;;;;;5026872;28;20435;-62
2023/04/27 02:24:08;;;;;;;9.27;4.70;;;;;;;;;;5011496;28;20449;-63
2023/04/27 02:26:34;;;;;;;11.45;4.88;;;;;;;;;;5023633;28;20064;-61
2023/04/27 02:28:59;;;;;;;9.95;4.70;;;;;;;;;;5016752;28;20076;-61
2023/04/27 02:31:25;;;;;;;9.98;4.78;;;;;;;;;;5010843;28;20029;-61
2023/04/27 02:33:51;;;;;;;10.40;4.57;;;;;;;;;;5016067;28;20056;-61
2023/04/27 02:36:17;;;;;;;14.63;5.57;;;;;;;;;;5025707;28;20592;-61
2023/04/27 02:38:42;;;;;;;11.68;4.65;;;;;;;;;;5013047;28;20396;-61
2023/04/27 02:41:08;;;;;;;9.07;4.40;;;;;;;;;;5019950;28;20067;-61
2023/04/27 02:43:33;;;;;;;9.55;4.55;;;;;;;;;;5024623;28;20113;-61
2023/04/27 02:46:02;;;;;;;10.10;4.50;;;;;;;;;;5015595;28;20034;-60
2023/04/27 02:48:29;;;;;;;9.73;4.60;;;;;;;;;;5018745;28;20030;-62
2023/04/27 02:50:55;;;;;;;10.68;4.65;;;;;;;;;;5022354;28;20041;-60
2023/04/27 02:53:21;;;;;;;13.80;4.93;;;;;;;;;;5027293;28;20041;-60
2023/04/27 02:55:49;;;;;;;8.40;4.53;;;;;;;;;;5012033;28;20386;-61
2023/04/27 02:58:15;;;;;;;8.05;4.45;;;;;;;;;;5025248;28;20041;-62
2023/04/27 03:00:42;;;;;;;10.63;4.50;;;;;;;;;;5011934;28;20384;-60
2023/04/27 03:03:08;;;;;;;8.40;4.75;;;;;;;;;;5010982;28;20085;-61
2023/04/27 03:05:34;;;;;;;11.13;5.10;;;;;;;;;;5016782;28;20127;-62
2023/04/27 03:07:59;;;;;;;9.05;4.90;;;;;;;;;;5027652;28;20108;-61
2023/04/27 03:10:25;;;;;;;12.60;4.97;;;;;;;;;;5017015;28;20065;-61
2023/04/27 03:12:50;;;;;;;10.25;4.88;;;;;;;;;;5013268;28;20439;-61
2023/04/27 03:15:16;;;;;;;10.77;5.20;;;;;;;;;;5023976;28;20042;-61
2023/04/27 03:17:41;;;;;;;9.85;4.90;;;;;;;;;;5015743;28;20026;-61
2023/04/27 03:20:08;;;;;;;10.25;4.50;;;;;;;;;;5021160;28;20048;-61
2023/04/27 03:22:35;;;;;;;12.10;4.75;;;;;;;;;;5017072;28;20038;-61
2023/04/27 03:25:01;;;;;;;13.15;5.05;;;;;;;;;;5017003;28;20072;-61
2023/04/27 03:27:26;;;;;;;11.10;5.28;;;;;;;;;;5021535;28;20128;-60
2023/04/27 03:29:54;;;;;;;14.63;5.78;;;;;;;;;;5014622;28;20560;-61
2023/04/27 03:32:20;;;;;;;9.88;4.78;;;;;;;;;;5022888;28;20169;-60
2023/04/27 03:34:45;;;;;;;11.75;5.20;;;;;;;;;;5009815;28;20495;-61
2023/04/27 03:37:11;;;;;;;10.93;5.60;;;;;;;;;;5010249;28;20042;-60
2023/04/27 03:39:36;;;;;;;13.50;5.75;;;;;;;;;;5015920;28;20435;-60
2023/04/27 03:42:02;;;;;;;11.95;6.00;;;;;;;;;;5010927;28;20037;-61
2023/04/27 03:44:30;;;;;;;14.95;5.68;;;;;;;;;;5021993;28;20037;-66
2023/04/27 03:46:56;;;;;;;12.93;5.80;;;;;;;;;;5021729;28;20050;-61
2023/04/27 03:49:22;;;;;;;10.32;5.50;;;;;;;;;;5013333;28;20095;-61
2023/04/27 03:51:47;;;;;;;11.30;5.35;;;;;;;;;;5026002;28;21568;-62
2023/04/27 03:54:13;;;;;;;15.13;5.68;;;;;;;;;;5023779;28;20037;-62
2023/04/27 03:56:39;;;;;;;12.15;5.82;;;;;;;;;;5025454;28;20033;-60
2023/04/27 03:59:05;;;;;;;12.35;5.97;;;;;;;;;;5030939;28;20091;-61
2023/04/27 04:01:30;;;;;;;12.82;5.80;;;;;;;;;;5014526;28;20439;-61
2023/04/27 04:03:56;;;;;;;11.60;5.75;;;;;;;;;;5014937;28;20034;-61
2023/04/27 04:06:21;;;;;;;13.75;5.82;;;;;;;;;;5022311;28;20056;-62
2023/04/27 04:08:46;;;;;;;11.88;5.60;;;;;;;;;;5028820;28;20029;-61
2023/04/27 04:11:12;;;;;;;15.30;6.15;;;;;;;;;;5014881;28;20350;-61
2023/04/27 04:13:37;;;;;;;11.55;6.00;;;;;;;;;;5014688;28;20037;-61
2023/04/27 04:16:05;;;;;;;13.15;6.47;;;;;;;;;;5014475;28;20064;-62
2023/04/27 04:18:30;;;;;;;16.20;6.38;;;;;;;;;;5014686;28;20037;-61
2023/04/27 04:20:56;;;;;;;13.55;6.68;;;;;;;;;;5017067;28;20034;-61
2023/04/27 04:23:21;;;;;;;16.88;6.30;;;;;;;;;;5030490;28;20471;-61
2023/04/27 04:25:47;;;;;;;14.70;6.85;;;;;;;;;;5021167;28;20487;-61
2023/04/27 04:28:12;;;;;;;13.25;6.60;;;;;;;;;;5015485;28;20029;-62
2023/04/27 04:30:38;;;;;;;16.75;6.68;;;;;;;;;;5018391;28;20040;-60
2023/04/27 04:33:04;;;;;;;16.48;6.90;;;;;;;;;;5027125;28;20034;-61
2023/04/27 04:35:31;;;;;;;13.52;6.47;;;;;;;;;;5013994;28;20460;-62
2023/04/27 04:37:57;;;;;;;15.65;7.35;;;;;;;;;;5014967;28;20447;-61
2023/04/27 04:40:23;;;;;;;16.13;6.78;;;;;;;;;;5019942;28;20029;-61
2023/04/27 04:42:48;;;;;;;14.00;6.97;;;;;;;;;;5033972;28;20021;-61
2023/04/27 04:45:14;;;;;;;16.27;7.63;;;;;;;;;;5030755;28;20036;-60
2023/04/27 04:47:40;;;;;;;17.92;7.03;;;;;;;;;;5032176;28;20034;-61
2023/04/27 04:50:06;;;;;;;18.27;7.63;;;;;;;;;;5033101;28;20163;-61
2023/04/27 04:52:31;;;;;;;15.05;7.78;;;;;;;;;;5029157;28;20030;-60
2023/04/27 04:54:57;;;;;;;19.70;7.70;;;;;;;;;;5013792;28;20524;-60
2023/04/27 04:57:22;;;;;;;17.92;7.80;;;;;;;;;;5013440;28;20022;-62
2023/04/27 04:59:48;;;;;;;16.88;7.40;;;;;;;;;;5034007;28;20026;-61
2023/04/27 05:02:13;;;;;;;15.00;7.45;;;;;;;;;;5032274;28;20044;-61
2023/04/27 05:04:38;;;;;;;16.13;7.90;;;;;;;;;;5029290;28;20033;-61
2023/04/27 05:07:05;;;;;;;15.48;7.20;;;;;;;;;;5033225;28;20033;-61
2023/04/27 05:09:30;;;;;;;16.77;7.65;;;;;;;;;;5029190;28;20391;-61
2023/04/27 05:11:56;;;;;;;14.30;7.78;;;;;;;;;;5033489;28;20026;-60
2023/04/27 05:14:21;;;;;;;16.67;7.53;;;;;;;;;;5029640;28;20041;-61
2023/04/27 05:16:48;;;;;;;15.88;6.95;;;;;;;;;;5031995;28;20032;-61
2023/04/27 05:19:17;;;;;;;14.15;6.68;;;;;;;;;;5030621;28;20042;-61
2023/04/27 05:21:44;;;;;;;15.70;7.20;;;;;;;;;;5015972;28;20026;-60
2023/04/27 05:24:10;;;;;;;15.68;6.97;;;;;;;;;;5030650;28;20057;-61
2023/04/27 05:26:35;;;;;;;14.20;7.13;;;;;;;;;;5030471;28;20434;-62
2023/04/27 05:29:00;;;;;;;12.07;6.35;;;;;;;;;;5032868;28;20025;-62
2023/04/27 05:31:26;;;;;;;14.02;6.65;;;;;;;;;;5029007;28;20117;-63
2023/04/27 05:33:52;;;;;;;14.68;6.68;;;;;;;;;;5031685;28;20025;-63
2023/04/27 05:36:17;;;;;;;16.42;6.47;;;;;;;;;;5031620;28;20070;-63
2023/04/27 05:38:42;;;;;;;17.52;7.10;;;;;;;;;;5032376;28;20120;-63
2023/04/27 05:41:08;;;;;;;14.88;6.82;;;;;;;;;;5028270;28;20520;-63
2023/04/27 05:43:34;;;;;;;14.52;7.05;;;;;;;;;;5030088;28;20464;-63
2023/04/27 05:45:59;;;;;;;14.50;7.00;;;;;;;;;;5030311;28;20092;-64
2023/04/27 05:48:25;;;;;;;16.58;6.88;;;;;;;;;;5031215;28;20116;-64
2023/04/27 05:51:01;;;;;;;17.60;6.75;;;;;;;;;;5029700;28;20037;-63
2023/04/27 05:53:28;;;;;;;12.48;6.18;;;;;;;;;;5030001;28;20094;-64
2023/04/27 05:55:53;;;;;;;18.80;6.88;;;;;;;;;;5031412;28;20033;-66
2023/04/27 05:58:18;;;;;;;13.57;6.30;;;;;;;;;;5031677;28;20353;-64
2023/04/27 06:00:44;;;;;;;16.77;7.13;;;;;;;;;;5031121;28;20029;-63
2023/04/27 06:03:10;;;;;;;14.57;6.65;;;;;;;;;;5030292;28;20033;-63
2023/04/27 06:05:35;;;;;;;15.02;7.15;;;;;;;;;;5030843;28;20036;-62
2023/04/27 06:08:01;;;;;;;14.70;6.82;;;;;;;;;;5028944;28;20041;-65
2023/04/27 06:10:26;;;;;;;16.20;6.47;;;;;;;;;;5029973;28;20120;-64
2023/04/27 06:12:51;;;;;;;11.73;6.70;;;;;;;;;;5032014;28;20025;-64
2023/04/27 06:15:17;;;;;;;15.45;6.80;;;;;;;;;;5031123;28;20029;-64
2023/04/27 06:17:42;;;;;;;16.17;7.53;;;;;;;;;;5030574;28;20033;-65
2023/04/27 06:20:08;;;;;;;13.20;6.15;;;;;;;;;;5031752;28;20069;-64
2023/04/27 06:22:35;;;;;;;14.00;6.72;;;;;;;;;;5029447;28;20068;-65
2023/04/27 06:25:02;;;;;;;16.27;6.45;;;;;;;;;;5032054;28;20436;-65
2023/04/27 06:27:27;;;;;;;12.02;6.20;;;;;;;;;;5029320;28;20042;-64
2023/04/27 06:29:52;;;;;;;14.00;5.78;;;;;;;;;;5031629;28;20395;-66
2023/04/27 06:32:18;;;;;;;12.80;5.93;;;;;;;;;;5025749;28;20061;-65
2023/04/27 06:34:43;;;;;;;13.02;5.72;;;;;;;;;;5031679;28;20480;-63
2023/04/27 06:37:08;;;;;;;12.75;5.90;;;;;;;;;;5031427;28;20041;-65
2023/04/27 06:39:34;;;;;;;12.05;5.72;;;;;;;;;;5030172;28;20148;-63
2023/04/27 06:41:59;;;;;;;12.18;5.00;;;;;;;;;;5047840;28;20047;-65
2023/04/27 06:44:25;;;;;;;10.88;6.10;;;;;;;;;;5037482;28;20038;-65
2023/04/27 06:46:51;;;;;;;12.05;5.50;;;;;;;;;;5031447;28;20069;-63
2023/04/27 06:49:16;;;;;;;11.48;5.28;;;;;;;;;;5029879;28;20043;-63
2023/04/27 06:51:42;;;;;;;10.70;4.90;;;;;;;;;;5031643;28;20030;-64
2023/04/27 06:54:08;;;;;;;13.25;5.40;;;;;;;;;;5020240;28;20033;-63
2023/04/27 06:56:33;;;;;;;11.25;4.80;;;;;;;;;;5030886;28;20516;-65
2023/04/27 06:58:59;;;;;;;11.45;4.78;;;;;;;;;;5030418;28;20045;-63
2023/04/27 07:01:24;;;;;;;12.90;4.63;;;;;;;;;;5030688;28;20415;-64
2023/04/27 07:03:50;;;;;;;10.25;5.63;;;;;;;;;;5029398;28;20037;-64
2023/04/27 07:06:15;;;;;;;9.15;4.45;;;;;;;;;;5030404;28;20044;-64
2023/04/27 07:08:41;;;;;;;10.98;4.50;;;;;;;;;;5030196;28;20032;-64
2023/04/27 07:11:07;;;;;;;12.02;4.40;;;;;;;;;;5031721;28;20142;-63
2023/04/27 07:13:32;;;;;;;11.50;4.07;;;;;;;;;;5028803;28;20727;-63
2023/04/27 07:15:58;;;;;;;8.73;4.07;;;;;;;;;;5031338;28;20040;-63
2023/04/27 07:18:24;;;;;;;8.95;3.92;;;;;;;;;;5028018;28;20361;-64
2023/04/27 07:20:50;;;;;;;10.38;3.90;;;;;;;;;;5027876;28;20468;-64
2023/04/27 07:23:16;;;;;;;7.15;3.95;;;;;;;;;;5027587;28;20030;-64
2023/04/27 07:25:42;;;;;;;12.40;4.50;;;;;;;;;;5030291;28;20091;-63
2023/04/27 07:28:07;;;;;;;12.35;4.15;;;;;;;;;;5032563;28;20030;-65
2023/04/27 07:30:35;;;;;;;7.63;3.97;;;;;;;;;;5034124;28;20032;-64
2023/04/27 07:33:00;;;;;;;8.23;3.92;;;;;;;;;;5030830;28;20041;-64
2023/04/27 07:35:26;;;;;;;12.77;3.80;;;;;;;;;;5034456;28;20037;-64
2023/04/27 07:37:51;;;;;;;11.27;4.15;;;;;;;;;;5034295;28;20049;-64
2023/04/27 07:40:17;;;;;;;8.77;3.67;;;;;;;;;;5033221;28;20534;-63
2023/04/27 07:42:43;;;;;;;9.43;4.05;;;;;;;;;;5035006;28;20029;-62
2023/04/27 07:45:09;;;;;;;8.68;3.70;;;;;;;;;;5030915;28;20141;-61
2023/04/27 07:47:35;;;;;;;10.35;4.22;;;;;;;;;;5024059;28;20136;-63
2023/04/27 07:50:00;;;;;;;9.80;3.88;;;;;;;;;;5034383;28;20071;-63
2023/04/27 07:52:26;;;;;;;6.60;3.45;;;;;;;;;;5033444;28;20087;-65
2023/04/27 07:54:51;;;;;;;9.07;4.18;;;;;;;;;;5033686;28;20029;-64
2023/04/27 07:57:17;;;;;;;9.57;3.65;;;;;;;;;;5033830;28;20104;-64
2023/04/27 07:59:42;;;;;;;8.45;3.42;;;;;;;;;;5033176;28;20033;-64
2023/04/27 08:02:07;;;;;;;5.78;3.60;;;;;;;;;;5032006;28;20038;-65
2023/04/27 08:04:33;;;;;;;10.07;3.83;;;;;;;;;;5031777;28;20033;-64
2023/04/27 08:06:58;;;;;;;8.35;3.60;;;;;;;;;;5034565;28;20033;-63
2023/04/27 08:09:24;;;;;;;7.82;4.03;;;;;;;;;;5032011;28;20108;-63
2023/04/27 08:11:49;;;;;;;6.68;3.63;;;;;;;;;;5032766;28;20037;-64
2023/04/27 08:14:15;;;;;;;9.77;3.83;;;;;;;;;;5032707;28;20048;-62
2023/04/27 08:16:41;;;;;;;7.43;3.60;;;;;;;;;;5034171;28;20037;-63
2023/04/27 08:19:08;;;;;;;9.10;3.78;;;;;;;;;;5027772;28;20045;-64
2023/04/27 08:21:35;;;;;;;9.07;3.83;;;;;;;;;;5030871;28;20111;-63
2023/04/27 08:24:01;;;;;;;6.90;3.97;;;;;;;;;;5030528;28;20045;-64
2023/04/27 08:26:26;;;;;;;8.00;3.83;;;;;;;;;;5029625;28;20387;-64
2023/04/27 08:28:52;;;;;;;7.18;3.92;;;;;;;;;;5030332;28;20033;-65
2023/04/27 08:31:17;;;;;;;7.68;3.80;;;;;;;;;;5033529;28;20464;-64
2023/04/27 08:33:42;;;;;;;8.93;3.60;;;;;;;;;;5032589;28;20026;-65
2023/04/27 08:36:08;;;;;;;7.70;3.22;;;;;;;;;;5033961;28;20030;-65
2023/04/27 08:38:34;;;;;;;9.10;3.80;;;;;;;;;;5031345;28;20237;-65
2023/04/27 08:41:00;;;;;;;7.28;3.22;;;;;;;;;;5031828;28;20056;-63
2023/04/27 08:43:25;;;;;;;5.63;2.80;;;;;;;;;;5020170;28;20098;-62
2023/04/27 08:45:51;;;;;;;5.30;2.83;;;;;;;;;;5016562;28;20037;-65
2023/04/27 08:48:17;;;;;;;6.07;3.13;;;;;;;;;;5031868;28;20026;-63
2023/04/27 08:50:44;;;;;;;7.68;3.38;;;;;;;;;;5030880;28;20112;-64
2023/04/27 08:53:35;;;;;;;6.32;2.65;;;;;;;;;;5033753;28;20038;-64
2023/04/27 08:56:01;;;;;;;7.13;2.75;;;;;;;;;;5023554;28;20052;-63
2023/04/27 08:58:36;;;;;;;4.88;2.85;;;;;;;;;;5026817;28;20029;-64
2023/04/27 09:01:05;;;;;;;6.35;2.40;;;;;;;;;;5018039;28;20044;-63
2023/04/27 09:03:31;;;;;;;11.77;3.40;;;;;;;;;;5032593;28;20040;-63
2023/04/27 09:05:56;;;;;;;7.85;3.55;;;;;;;;;;5031908;28;20033;-64
2023/04/27 09:08:21;;;;;;;9.95;3.28;;;;;;;;;;5031246;28;20045;-63
2023/04/27 09:10:49;;;;;;;5.25;2.90;;;;;;;;;;5031792;28;20109;-62
2023/04/27 09:13:14;;;;;;;10.52;4.13;;;;;;;;;;5032995;28;20033;-62
2023/04/27 09:15:47;;;;;;;6.78;3.15;;;;;;;;;;5024933;28;20434;-63
2023/04/27 09:18:21;;;;;;;7.72;2.75;;;;;;;;;;5024672;28;20033;-64
2023/04/27 09:20:49;;;;;;;5.47;3.25;;;;;;;;;;5031886;28;20029;-67
2023/04/27 09:23:32;;;;;;;4.95;2.60;;;;;;;;;;5031863;28;20479;-65
2023/04/27 09:26:07;;;;;;;4.85;2.78;;;;;;;;;;5031861;28;20056;-64
2023/04/27 09:28:33;;;;;;;4.70;2.60;;;;;;;;;;5032275;28;20464;-64
2023/04/27 09:31:00;;;;;;;4.97;2.60;;;;;;;;;;5027975;28;20036;-65
2023/04/27 09:33:31;;;;;;;4.97;2.70;;;;;;;;;;5032034;28;20083;-65
2023/04/27 09:36:02;;;;;;;6.25;2.40;;;;;;;;;;5029780;28;20045;-64
2023/04/27 09:38:28;;;;;;;7.03;3.15;;;;;;;;;;5030621;28;20061;-65
2023/04/27 09:40:54;;;;;;;4.72;2.80;;;;;;;;;;5030542;28;20132;-64
2023/04/27 09:43:20;;;;;;;5.72;2.95;;;;;;;;;;5031035;28;20120;-66
2023/04/27 09:45:47;;;;;;;6.47;3.20;;;;;;;;;;5026258;28;20128;-64
2023/04/27 09:48:12;;;;;;;6.13;3.00;;;;;;;;;;5022235;28;20038;-63
2023/04/27 09:50:44;;;;;;;4.65;2.50;;;;;;;;;;5030471;28;20091;-62
2023/04/27 09:53:12;;;;;;;4.53;2.40;;;;;;;;;;5031554;28;20044;-63
2023/04/27 09:55:46;;;;;;;5.95;2.33;;;;;;;;;;5029987;28;20034;-63
2023/04/27 09:58:14;;;;;;;6.25;2.50;;;;;;;;;;5032494;28;20037;-63
2023/04/27 10:01:04;;;;;;;3.95;2.47;;;;;;;;;;5030243;28;20335;-64
2023/04/27 10:03:55;;;;;;;4.38;2.40;;;;;;;;;;5022158;28;20517;-65
2023/04/27 10:06:50;;;;;;;6.70;3.35;;;;;;;;;;5029747;28;20061;-65
2023/04/27 10:09:22;;;;;;;5.25;3.03;;;;;;;;;;5032178;28;20033;-66
2023/04/27 10:11:48;;;;;;;4.95;3.03;;;;;;;;;;5018388;28;20088;-64
2023/04/27 10:14:22;;;;;;;5.13;3.00;;;;;;;;;;5028514;28;20439;-64
2023/04/27 10:16:55;;;;;;;7.13;3.10;;;;;;;;;;5031278;28;20036;-64
2023/04/27 10:19:22;;;;;;;6.10;3.08;;;;;;;;;;5031487;28;20056;-63
2023/04/27 10:22:04;;;;;;;6.88;3.58;;;;;;;;;;5031241;28;20033;-66
2023/04/27 10:24:47;;;;;;;7.70;3.25;;;;;;;;;;5031366;28;20069;-63
2023/04/27 10:27:17;;;;;;;6.60;3.20;;;;;;;;;;5031789;28;20029;-64
2023/04/27 10:29:45;;;;;;;6.95;3.42;;;;;;;;;;5029684;28;20645;-63
2023/04/27 10:32:19;;;;;;;6.50;3.17;;;;;;;;;;5016884;28;20037;-64
2023/04/27 10:34:47;;;;;;;5.22;3.40;;;;;;;;;;5030338;28;20037;-64
2023/04/27 10:37:13;;;;;;;6.50;3.45;;;;;;;;;;5029772;28;20545;-63
2023/04/27 10:39:41;;;;;;;5.45;3.33;;;;;;;;;;5031075;28;20033;-63
2023/04/27 10:42:07;;;;;;;5.78;3.63;;;;;;;;;;5030076;28;20066;-63
2023/04/27 10:44:34;;;;;;;7.50;3.50;;;;;;;;;;5028574;28;20029;-62
2023/04/27 10:47:11;;;;;;;5.03;3.50;;;;;;;;;;5031468;28;20033;-62
2023/04/27 10:49:37;;;;;;;9.05;3.33;;;;;;;;;;5029574;28;20060;-64
2023/04/27 10:52:03;;;;;;;5.72;3.65;;;;;;;;;;5030968;28;20060;-65
2023/04/27 10:54:30;;;;;;;8.30;3.30;;;;;;;;;;5028859;28;20037;-64
2023/04/27 10:57:09;;;;;;;5.47;3.25;;;;;;;;;;5030750;28;20041;-64
2023/04/27 10:59:50;;;;;;;7.00;3.40;;;;;;;;;;5028774;28;20034;-63
2023/04/27 11:02:15;;;;;;;5.32;3.45;;;;;;;;;;5030422;28;20051;-65
2023/04/27 11:04:41;;;;;;;6.55;3.78;;;;;;;;;;5026007;28;20191;-64
2023/04/27 11:07:11;;;;;;;5.45;3.55;;;;;;;;;;5029141;28;20372;-65
2023/04/27 11:09:38;;;;;;;7.47;3.30;;;;;;;;;;5030402;28;20119;-65
2023/04/27 11:12:10;;;;;;;5.32;3.40;;;;;;;;;;5029031;28;20033;-65
2023/04/27 11:14:36;;;;;;;6.80;3.63;;;;;;;;;;5030676;28;20120;-64
2023/04/27 11:17:05;;;;;;;7.43;3.53;;;;;;;;;;5029319;28;20112;-64
2023/04/27 11:19:31;;;;;;;8.40;4.00;;;;;;;;;;5029356;28;20042;-64
2023/04/27 11:22:05;;;;;;;7.72;3.80;;;;;;;;;;5029905;28;20033;-65
2023/04/27 11:24:31;;;;;;;6.30;3.80;;;;;;;;;;5028859;28;20032;-64
2023/04/27 11:26:56;;;;;;;6.07;3.60;;;;;;;;;;5031352;28;20080;-64
2023/04/27 11:29:22;;;;;;;9.23;3.97;;;;;;;;;;5028412;28;20029;-65
2023/04/27 11:31:50;;;;;;;6.25;3.70;;;;;;;;;;5030268;28;20061;-65
2023/04/27 11:34:23;;;;;;;7.35;3.28;;;;;;;;;;5029528;28;20430;-65
2023/04/27 11:37:04;;;;;;;5.13;3.60;;;;;;;;;;5029147;28;20132;-64
2023/04/27 11:39:37;;;;;;;5.55;3.88;;;;;;;;;;5023723;28;20064;-62
2023/04/27 11:42:20;;;;;;;5.85;3.60;;;;;;;;;;5029578;28;20029;-62
2023/04/27 11:45:00;;;;;;;5.72;3.65;;;;;;;;;;5030504;28;20164;-62
2023/04/27 11:47:30;;;;;;;6.78;3.72;;;;;;;;;;5013115;28;20480;-62
2023/04/27 11:49:57;;;;;;;7.25;4.50;;;;;;;;;;5030786;28;20415;-64
2023/04/27 11:52:33;;;;;;;6.18;3.97;;;;;;;;;;5030770;28;20440;-64
2023/04/27 11:55:00;;;;;;;7.22;3.92;;;;;;;;;;5049639;28;20494;-64
2023/04/27 11:57:28;;;;;;;6.60;4.10;;;;;;;;;;5047247;28;20079;-64
2023/04/27 11:59:55;;;;;;;6.18;4.13;;;;;;;;;;5030795;28;20044;-64
2023/04/27 12:02:23;;;;;;;6.05;3.78;;;;;;;;;;5030895;28;20030;-62
2023/04/27 12:04:49;;;;;;;5.70;3.72;;;;;;;;;;5028403;28;20693;-63
2023/04/27 12:07:15;;;;;;;5.95;3.85;;;;;;;;;;5030677;28;20037;-64
2023/04/27 12:09:41;;;;;;;6.10;3.60;;;;;;;;;;5027704;28;20113;-64
2023/04/27 12:12:06;;;;;;;6.43;4.10;;;;;;;;;;5030962;28;20120;-63
2023/04/27 12:14:32;;;;;;;9.55;4.10;;;;;;;;;;5031787;28;20549;-63
2023/04/27 12:16:57;;;;;;;7.15;4.10;;;;;;;;;;5033705;28;20033;-64
2023/04/27 12:19:26;;;;;;;7.72;4.20;;;;;;;;;;5031564;28;20037;-63
2023/04/27 12:21:51;;;;;;;7.60;3.92;;;;;;;;;;5031290;28;20049;-70
2023/04/27 12:24:17;;;;;;;8.27;4.30;;;;;;;;;;5032603;28;20037;-66
2023/04/27 12:26:43;;;;;;;6.05;3.78;;;;;;;;;;5033401;28;20029;-66
2023/04/27 12:29:08;;;;;;;5.97;3.85;;;;;;;;;;5032313;28;20033;-67
2023/04/27 12:31:34;;;;;;;6.03;3.80;;;;;;;;;;5031841;28;20067;-66
2023/04/27 12:34:00;;;;;;;6.30;3.70;;;;;;;;;;5033740;28;20034;-64
2023/04/27 12:36:26;;;;;;;6.63;4.13;;;;;;;;;;5032482;28;20065;-62
2023/04/27 12:38:53;;;;;;;7.13;3.97;;;;;;;;;;5033158;28;20514;-63
2023/04/27 12:41:18;;;;;;;7.88;3.90;;;;;;;;;;5030651;28;20083;-64
2023/04/27 12:43:44;;;;;;;6.25;4.05;;;;;;;;;;5033054;28;20434;-62
2023/04/27 12:46:10;;;;;;;7.03;4.10;;;;;;;;;;5033154;28;20036;-64
2023/04/27 12:48:35;;;;;;;6.68;4.30;;;;;;;;;;5032584;28;20034;-62
2023/04/27 12:51:01;;;;;;;5.90;4.07;;;;;;;;;;5031895;28;20041;-64
2023/04/27 12:53:27;;;;;;;7.03;4.30;;;;;;;;;;5033656;28;20476;-64
2023/04/27 12:55:52;;;;;;;7.60;4.20;;;;;;;;;;5032153;28;20033;-63
2023/04/27 12:58:18;;;;;;;5.40;4.00;;;;;;;;;;5032506;28;20124;-63
2023/04/27 13:00:44;;;;;;;6.57;3.95;;;;;;;;;;5031745;28;20079;-62
2023/04/27 13:03:09;;;;;;;7.25;4.22;;;;;;;;;;5030271;28;20423;-63
2023/04/27 13:05:35;;;;;;;7.13;4.28;;;;;;;;;;5032380;28;20041;-62
2023/04/27 13:08:01;;;;;;;9.07;4.10;;;;;;;;;;5042930;28;20472;-64
2023/04/27 13:10:27;;;;;;;7.13;4.15;;;;;;;;;;5033263;28;20423;-62
2023/04/27 13:12:53;;;;;;;7.55;4.30;;;;;;;;;;5025413;28;20033;-63
2023/04/27 13:15:19;;;;;;;6.03;4.18;;;;;;;;;;5033691;28;20033;-63
2023/04/27 13:17:45;;;;;;;5.80;4.00;;;;;;;;;;5030456;28;20037;-64
2023/04/27 13:20:11;;;;;;;6.07;4.00;;;;;;;;;;5033316;28;20521;-63
2023/04/27 13:22:38;;;;;;;6.53;4.50;;;;;;;;;;5029989;28;20116;-62
2023/04/27 13:25:04;;;;;;;6.93;4.10;;;;;;;;;;5030055;28;20041;-63
2023/04/27 13:27:30;;;;;;;8.55;4.13;;;;;;;;;;5032516;28;20036;-67
2023/04/27 13:29:55;;;;;;;7.60;4.32;;;;;;;;;;5030523;28;20033;-63
2023/04/27 13:32:21;;;;;;;6.72;4.40;;;;;;;;;;5032850;28;20505;-62
2023/04/27 13:34:46;;;;;;;6.75;4.40;;;;;;;;;;5026501;28;20034;-61
2023/04/27 13:37:12;;;;;;;6.93;4.22;;;;;;;;;;5029469;28;20044;-62
2023/04/27 13:39:37;;;;;;;7.75;4.60;;;;;;;;;;5032050;28;20033;-61
2023/04/27 13:42:03;;;;;;;7.00;4.38;;;;;;;;;;5030242;28;20127;-62
2023/04/27 13:44:28;;;;;;;6.78;4.20;;;;;;;;;;5031780;28;20037;-64
2023/04/27 13:46:53;;;;;;;6.05;4.32;;;;;;;;;;5030718;28;20029;-64
2023/04/27 13:49:19;;;;;;;5.70;4.28;;;;;;;;;;5032955;28;20051;-63
2023/04/27 13:51:44;;;;;;;6.38;4.20;;;;;;;;;;5031381;28;20037;-63
2023/04/27 13:54:10;;;;;;;7.47;4.22;;;;;;;;;;5032013;28;20029;-62
2023/04/27 13:56:36;;;;;;;8.00;4.32;;;;;;;;;;5032469;28;20539;-62
2023/04/27 13:59:02;;;;;;;5.53;4.05;;;;;;;;;;5026283;28;20044;-63
2023/04/27 14:01:28;;;;;;;6.82;4.32;;;;;;;;;;5032327;28;20029;-63
2023/04/27 14:03:54;;;;;;;8.52;4.15;;;;;;;;;;5028712;28;20037;-60
2023/04/27 14:06:19;;;;;;;7.88;4.68;;;;;;;;;;5027407;28;20109;-63
2023/04/27 14:08:45;;;;;;;6.20;4.00;;;;;;;;;;5029221;28;20041;-63
2023/04/27 14:11:11;;;;;;;7.78;4.50;;;;;;;;;;5032283;28;20030;-62
2023/04/27 14:13:37;;;;;;;6.25;4.40;;;;;;;;;;5029669;28;20485;-62
2023/04/27 14:16:03;;;;;;;6.07;4.45;;;;;;;;;;5032183;28;20044;-61
2023/04/27 14:18:28;;;;;;;6.78;4.30;;;;;;;;;;5030177;28;20380;-61
2023/04/27 14:20:54;;;;;;;7.43;4.20;;;;;;;;;;5031867;28;20033;-61
2023/04/27 14:23:20;;;;;;;5.20;4.15;;;;;;;;;;5030636;28;20041;-61
2023/04/27 14:25:46;;;;;;;6.47;4.22;;;;;;;;;;5031274;28;20094;-60
2023/04/27 14:28:13;;;;;;;6.47;4.57;;;;;;;;;;5030477;28;20029;-61
2023/04/27 14:30:38;;;;;;;6.25;3.92;;;;;;;;;;5026704;28;20036;-64
2023/04/27 14:33:04;;;;;;;8.38;4.82;;;;;;;;;;5028978;28;20033;-62
2023/04/27 14:35:29;;;;;;;6.70;4.53;;;;;;;;;;5028911;28;20495;-62